Time;durP1;ratioP1;P1;durP2;ratioP2;P2;SDS_P1;SDS_P2;PMS_P1;PMS_P2;Temp;Humidity;BMP_temperature;BMP_pressure;BME280_temperature;BME280_humidity;BME280_pressure;Samples;Min_cycle;Max_cycle;Signal;HPM_P1;HPM_P2
2023/03/31 00:01:06;;;;;;;10.30;2.90;;;;;;;10.70;100.00;100204.06;4974100;28;20374;-73
2023/03/31 00:03:32;;;;;;;10.10;3.25;;;;;;;10.68;100.00;100189.94;4942972;29;20038;-70
2023/03/31 00:05:59;;;;;;;12.57;3.20;;;;;;;10.69;100.00;100179.94;4975520;28;20046;-69
2023/03/31 00:08:34;;;;;;;10.00;2.95;;;;;;;10.67;100.00;100173.97;4976359;28;20042;-72
2023/03/31 00:11:00;;;;;;;12.05;3.20;;;;;;;10.66;100.00;100158.78;4976497;28;20050;-70
2023/03/31 00:13:27;;;;;;;9.93;3.05;;;;;;;10.70;100.00;100155.34;4972407;28;20033;-70
2023/03/31 00:15:57;;;;;;;9.57;2.70;;;;;;;10.61;100.00;100149.53;4956900;28;20478;-70
2023/03/31 00:18:24;;;;;;;10.85;2.58;;;;;;;10.61;100.00;100144.13;4965477;28;20034;-70
2023/03/31 00:20:51;;;;;;;10.30;3.17;;;;;;;10.60;100.00;100130.84;4958134;28;20031;-72
2023/03/31 00:23:17;;;;;;;7.45;2.53;;;;;;;10.59;100.00;100130.00;4974965;28;20041;-72
2023/03/31 00:25:43;;;;;;;11.30;3.10;;;;;;;10.56;100.00;100124.25;4976529;28;20035;-70
2023/03/31 00:28:09;;;;;;;7.90;3.13;;;;;;;10.53;100.00;100114.72;4969167;28;20041;-72
2023/03/31 00:30:35;;;;;;;10.88;3.03;;;;;;;10.55;100.00;100112.63;4971524;28;20039;-70
2023/03/31 00:33:00;;;;;;;9.60;2.72;;;;;;;10.52;100.00;100117.69;4974426;28;20026;-69
2023/03/31 00:35:25;;;;;;;11.48;2.63;;;;;;;10.55;100.00;100106.38;4974455;28;20042;-70
2023/03/31 00:37:52;;;;;;;8.02;2.53;;;;;;;10.51;100.00;100105.22;4958696;28;20406;-70
2023/03/31 00:40:18;;;;;;;12.35;2.97;;;;;;;10.51;100.00;100099.78;4974259;28;20034;-69
2023/03/31 00:42:45;;;;;;;9.07;2.88;;;;;;;10.49;100.00;100096.53;4959224;28;20023;-72
2023/03/31 00:45:13;;;;;;;8.70;2.60;;;;;;;10.43;100.00;100082.06;4956579;29;20111;-72
2023/03/31 00:47:46;;;;;;;12.80;2.75;;;;;;;10.42;100.00;100081.25;4959719;28;20425;-71
2023/03/31 00:50:19;;;;;;;7.82;2.63;;;;;;;10.43;100.00;100082.91;4958333;28;20362;-71
2023/03/31 00:52:46;;;;;;;9.57;2.95;;;;;;;10.42;100.00;100075.06;4958272;28;20027;-71
2023/03/31 00:55:17;;;;;;;11.32;3.03;;;;;;;10.41;100.00;100076.91;4956657;29;20035;-72
2023/03/31 00:57:45;;;;;;;9.90;2.50;;;;;;;10.42;100.00;100066.94;4965582;28;20034;-70
2023/03/31 01:00:15;;;;;;;11.32;2.65;;;;;;;10.40;100.00;100064.47;4944464;29;20035;-71
2023/03/31 01:02:57;;;;;;;14.93;3.42;;;;;;;10.43;100.00;100061.28;4968102;28;20451;-72
2023/03/31 01:05:31;;;;;;;12.30;2.80;;;;;;;10.41;100.00;100065.28;4975282;28;20036;-68
2023/03/31 01:07:59;;;;;;;9.88;2.80;;;;;;;10.43;100.00;100058.56;4965623;28;20640;-70
2023/03/31 01:10:25;;;;;;;11.75;2.90;;;;;;;10.46;100.00;100049.13;4973497;28;20042;-69
2023/03/31 01:12:54;;;;;;;11.25;2.92;;;;;;;10.48;100.00;100051.59;4975432;28;20023;-73
2023/03/31 01:15:20;;;;;;;10.65;2.60;;;;;;;10.49;100.00;100047.84;4957823;28;20023;-71
2023/03/31 01:17:48;;;;;;;12.10;2.72;;;;;;;10.50;100.00;100044.06;4958556;28;20039;-73
2023/03/31 01:20:18;;;;;;;12.52;3.00;;;;;;;10.50;100.00;100041.38;4955614;29;20218;-72
2023/03/31 01:23:25;;;;;;;13.23;2.70;;;;;;;10.53;100.00;100038.19;4955518;29;20058;-70
2023/03/31 01:26:06;;;;;;;9.50;2.63;;;;;;;10.49;100.00;100026.19;4963501;28;20039;-73
2023/03/31 01:28:40;;;;;;;11.23;2.80;;;;;;;10.45;100.00;100018.56;4953014;29;20090;-71
2023/03/31 01:31:27;;;;;;;12.00;3.03;;;;;;;10.46;100.00;100022.94;4963104;28;20034;-73
2023/03/31 01:34:04;;;;;;;10.85;3.00;;;;;;;10.46;100.00;100017.50;4961324;28;20031;-69
2023/03/31 01:37:21;;;;;;;9.32;2.53;;;;;;;10.49;100.00;100013.47;4944731;28;20047;-72
2023/03/31 01:40:08;;;;;;;13.07;3.00;;;;;;;10.46;100.00;100006.69;4930451;28;20045;-74
2023/03/31 01:42:55;;;;;;;13.00;3.38;;;;;;;10.48;100.00;100002.91;4951039;28;20031;-72
2023/03/31 01:45:58;;;;;;;14.52;2.97;;;;;;;10.47;100.00;99996.69;4938246;29;20344;-70
2023/03/31 01:48:52;;;;;;;19.08;3.45;;;;;;;10.43;100.00;99982.84;4959465;28;20174;-73
2023/03/31 01:51:55;;;;;;;13.48;3.22;;;;;;;10.40;100.00;99969.81;4953681;28;20039;-71
2023/03/31 01:54:42;;;;;;;13.07;3.17;;;;;;;10.41;100.00;99959.81;4937794;28;20045;-71
2023/03/31 01:57:31;;;;;;;14.43;3.58;;;;;;;10.42;100.00;99953.34;4952000;28;20506;-70
2023/03/31 02:00:12;;;;;;;16.30;3.10;;;;;;;10.38;100.00;99949.47;4948893;28;20085;-69
2023/03/31 02:02:45;;;;;;;10.95;3.03;;;;;;;10.33;100.00;99946.66;4963935;28;20035;-71
2023/03/31 02:05:15;;;;;;;10.30;2.88;;;;;;;10.26;100.00;99933.28;4953625;28;20033;-72
2023/03/31 02:07:59;;;;;;;8.23;2.50;;;;;;;10.29;100.00;99919.28;4954189;28;20082;-70
2023/03/31 02:10:28;;;;;;;11.70;2.70;;;;;;;10.26;100.00;99914.38;4964577;28;20053;-71
2023/03/31 02:12:55;;;;;;;14.75;2.80;;;;;;;10.27;100.00;99902.50;4958531;28;20039;-71
2023/03/31 02:15:26;;;;;;;11.50;3.17;;;;;;;10.26;100.00;99898.16;4967776;28;20061;-72
2023/03/31 02:17:56;;;;;;;12.87;2.57;;;;;;;10.30;100.00;99880.38;4954732;29;20082;-71
2023/03/31 02:20:22;;;;;;;14.35;2.92;;;;;;;10.30;100.00;99880.38;4962308;28;20023;-71
2023/03/31 02:22:52;;;;;;;14.02;3.30;;;;;;;10.31;100.00;99873.06;4957657;28;20035;-70
2023/03/31 02:25:22;;;;;;;13.90;3.40;;;;;;;10.31;100.00;99862.25;4941127;28;20048;-70
2023/03/31 02:27:54;;;;;;;12.15;3.20;;;;;;;10.34;100.00;99857.22;4954220;28;20579;-75
2023/03/31 02:30:20;;;;;;;17.40;3.47;;;;;;;10.35;100.00;99853.44;4955515;28;20130;-73
2023/03/31 02:32:45;;;;;;;11.23;3.15;;;;;;;10.36;100.00;99832.63;4973787;28;20117;-72
2023/03/31 02:35:17;;;;;;;14.70;3.45;;;;;;;10.38;100.00;99835.88;4958444;28;20135;-73
2023/03/31 02:37:44;;;;;;;16.63;3.25;;;;;;;10.34;100.00;99819.34;4961176;28;20048;-71
2023/03/31 02:40:15;;;;;;;14.90;3.78;;;;;;;10.35;100.00;99806.66;4962372;28;20035;-69
2023/03/31 02:42:41;;;;;;;15.15;3.38;;;;;;;10.38;100.00;99781.81;4956534;28;20027;-73
2023/03/31 02:45:40;;;;;;;15.77;3.08;;;;;;;10.38;100.00;99804.25;4953697;28;20172;-70
2023/03/31 02:48:10;;;;;;;16.23;3.55;;;;;;;10.38;100.00;99787.22;4965625;28;20085;-71
2023/03/31 02:50:58;;;;;;;16.17;3.33;;;;;;;10.34;100.00;99781.50;4973284;28;20443;-68
2023/03/31 02:53:35;;;;;;;18.95;3.78;;;;;;;10.31;100.00;99776.56;4964291;28;20058;-73
2023/03/31 02:56:11;;;;;;;18.92;3.60;;;;;;;10.29;100.00;99754.34;4968952;28;20045;-72
2023/03/31 02:58:51;;;;;;;19.52;3.58;;;;;;;10.32;100.00;99744.91;4953254;28;20035;-71
2023/03/31 03:01:47;;;;;;;18.98;4.05;;;;;;;10.27;100.00;99738.38;4951786;29;20023;-74
2023/03/31 03:04:33;;;;;;;17.30;4.07;;;;;;;10.31;100.00;99733.28;4951536;29;20031;-70
2023/03/31 03:07:21;;;;;;;20.20;4.30;;;;;;;10.30;100.00;99726.25;4953522;28;20070;-72
2023/03/31 03:10:02;;;;;;;15.60;3.72;;;;;;;10.28;100.00;99728.34;4937794;28;20019;-71
2023/03/31 03:12:40;;;;;;;13.50;3.38;;;;;;;10.31;100.00;99729.75;4949321;28;20031;-71
2023/03/31 03:15:09;;;;;;;16.67;3.65;;;;;;;10.33;100.00;99733.88;4958008;28;20023;-71
2023/03/31 03:17:41;;;;;;;15.95;3.90;;;;;;;10.26;100.00;99717.00;4958256;29;20031;-71
2023/03/31 03:20:08;;;;;;;18.63;3.38;;;;;;;10.30;100.00;99715.44;4970079;28;20033;-72
2023/03/31 03:22:36;;;;;;;15.52;3.83;;;;;;;10.24;100.00;99714.53;4963898;28;20425;-73
2023/03/31 03:25:02;;;;;;;16.52;4.00;;;;;;;10.28;100.00;99710.28;4956210;28;20057;-72
2023/03/31 03:27:27;;;;;;;12.73;3.35;;;;;;;10.33;100.00;99706.84;4958125;29;20027;-74
2023/03/31 03:29:53;;;;;;;13.23;3.25;;;;;;;10.31;100.00;99705.41;4940035;28;20030;-72
2023/03/31 03:32:18;;;;;;;16.25;3.72;;;;;;;10.29;100.00;99702.97;4944195;29;20081;-74
2023/03/31 03:34:44;;;;;;;13.38;3.13;;;;;;;10.29;100.00;99703.78;4957247;28;20046;-72
2023/03/31 03:37:09;;;;;;;15.60;3.33;;;;;;;10.29;100.00;99701.06;4948920;29;20359;-72
2023/03/31 03:39:34;;;;;;;15.40;3.10;;;;;;;10.27;100.00;99691.59;4940462;29;20114;-73
2023/03/31 03:42:00;;;;;;;14.93;3.30;;;;;;;10.25;100.00;99688.31;4940231;29;20034;-71
2023/03/31 03:44:25;;;;;;;18.48;3.00;;;;;;;10.25;100.00;99667.50;4956807;28;20039;-70
2023/03/31 03:46:50;;;;;;;17.50;3.70;;;;;;;10.21;100.00;99657.44;4957068;28;20463;-70
2023/03/31 03:49:16;;;;;;;16.30;3.50;;;;;;;10.21;100.00;99655.56;4940014;28;20086;-73
2023/03/31 03:51:41;;;;;;;16.92;3.60;;;;;;;10.17;100.00;99651.72;4955646;28;20471;-70
2023/03/31 03:54:07;;;;;;;14.10;3.80;;;;;;;10.17;100.00;99640.09;4957622;28;20027;-70
2023/03/31 03:56:32;;;;;;;10.48;2.85;;;;;;;10.16;100.00;99638.44;4952237;28;20093;-71
2023/03/31 03:58:57;;;;;;;15.10;3.20;;;;;;;10.13;100.00;99628.16;4970001;28;20066;-71
2023/03/31 04:01:23;;;;;;;12.55;2.97;;;;;;;10.10;100.00;99618.69;4973621;28;20050;-71
2023/03/31 04:03:48;;;;;;;13.32;2.90;;;;;;;10.11;100.00;99618.41;4969028;28;20034;-71
2023/03/31 04:06:14;;;;;;;13.57;2.90;;;;;;;10.05;100.00;99608.59;4973548;28;20023;-70
2023/03/31 04:08:39;;;;;;;9.02;2.80;;;;;;;10.04;100.00;99604.28;4973315;28;20108;-71
2023/03/31 04:11:13;;;;;;;9.77;2.78;;;;;;;10.07;100.00;99592.97;4971693;28;20030;-70
2023/03/31 04:13:38;;;;;;;15.48;3.13;;;;;;;10.07;100.00;99589.41;4942741;29;20054;-73
2023/03/31 04:16:04;;;;;;;14.65;3.45;;;;;;;10.05;100.00;99578.84;4958234;28;20019;-73
2023/03/31 04:18:29;;;;;;;11.57;2.70;;;;;;;10.07;100.00;99571.34;4976202;28;20467;-71
2023/03/31 04:21:02;;;;;;;9.90;2.60;;;;;;;10.07;100.00;99570.50;4972419;28;20026;-73
2023/03/31 04:23:33;;;;;;;12.05;2.78;;;;;;;10.05;100.00;99565.34;4972607;28;20042;-72
2023/03/31 04:25:59;;;;;;;9.65;2.70;;;;;;;10.05;100.00;99559.94;4969988;28;20039;-72
2023/03/31 04:28:33;;;;;;;11.15;2.40;;;;;;;10.05;100.00;99556.44;4961364;28;20078;-70
2023/03/31 04:30:59;;;;;;;13.82;2.72;;;;;;;10.07;100.00;99544.31;4956135;28;20035;-73
2023/03/31 04:33:24;;;;;;;10.55;2.70;;;;;;;10.08;100.00;99539.69;4956604;28;20106;-71
2023/03/31 04:35:51;;;;;;;8.48;2.10;;;;;;;10.01;100.00;99528.25;4956767;29;20057;-70
2023/03/31 04:38:26;;;;;;;10.25;2.35;;;;;;;9.99;100.00;99530.41;4965655;28;20057;-71
2023/03/31 04:40:52;;;;;;;8.05;2.35;;;;;;;9.98;100.00;99521.50;4965736;28;20023;-71
2023/03/31 04:43:19;;;;;;;13.20;2.85;;;;;;;9.98;100.00;99516.09;4956954;29;20039;-72
2023/03/31 04:45:44;;;;;;;9.45;2.67;;;;;;;9.98;100.00;99504.47;4955253;28;20054;-71
2023/03/31 04:48:10;;;;;;;10.50;2.38;;;;;;;9.98;100.00;99496.34;4956292;29;20073;-73
2023/03/31 04:50:35;;;;;;;8.52;2.47;;;;;;;10.02;100.00;99498.28;4958815;28;20038;-72
2023/03/31 04:53:01;;;;;;;9.30;2.35;;;;;;;10.00;100.00;99488.81;4955984;28;20463;-69
2023/03/31 04:55:27;;;;;;;11.00;2.42;;;;;;;10.01;100.00;99485.88;4957078;28;20156;-70
2023/03/31 04:57:52;;;;;;;8.10;1.80;;;;;;;10.00;100.00;99484.22;4963684;28;20023;-69
2023/03/31 05:00:19;;;;;;;7.63;2.30;;;;;;;9.98;100.00;99488.25;4938815;28;20039;-71
2023/03/31 05:02:44;;;;;;;7.05;2.17;;;;;;;9.99;100.00;99484.47;4960006;28;20038;-71
2023/03/31 05:05:11;;;;;;;10.30;2.33;;;;;;;10.00;100.00;99481.53;4956171;28;20034;-74
2023/03/31 05:07:37;;;;;;;10.55;2.15;;;;;;;9.93;100.00;99472.78;4956008;28;20074;-74
2023/03/31 05:10:03;;;;;;;8.52;2.28;;;;;;;9.87;100.00;99461.13;4963572;28;20431;-72
2023/03/31 05:12:32;;;;;;;5.63;2.25;;;;;;;9.88;100.00;99454.63;4955967;28;20094;-70
2023/03/31 05:14:57;;;;;;;9.80;2.30;;;;;;;9.90;100.00;99454.38;4961962;28;20042;-74
2023/03/31 05:17:23;;;;;;;7.80;2.30;;;;;;;9.88;100.00;99445.72;4954530;28;20031;-70
2023/03/31 05:19:48;;;;;;;8.10;2.35;;;;;;;9.90;100.00;99441.72;4962629;28;20027;-71
2023/03/31 05:22:13;;;;;;;12.15;2.10;;;;;;;9.88;100.00;99440.31;4955994;29;20077;-72
2023/03/31 05:24:39;;;;;;;8.45;2.35;;;;;;;9.87;100.00;99433.28;4948505;28;20042;-71
2023/03/31 05:27:04;;;;;;;8.07;1.92;;;;;;;9.84;100.00;99426.50;4954956;28;20031;-71
2023/03/31 05:29:30;;;;;;;10.45;2.40;;;;;;;9.85;100.00;99427.31;4955827;29;20035;-71
2023/03/31 05:31:55;;;;;;;6.97;2.05;;;;;;;9.85;100.00;99421.94;4954267;28;20082;-70
2023/03/31 05:34:20;;;;;;;8.75;2.03;;;;;;;9.84;100.00;99420.28;4954507;28;20427;-71
2023/03/31 05:36:47;;;;;;;7.25;1.92;;;;;;;9.84;100.00;99409.47;4954796;28;20665;-73
2023/03/31 05:39:12;;;;;;;8.07;2.20;;;;;;;9.83;100.00;99405.97;4943442;29;20033;-71
2023/03/31 05:41:37;;;;;;;9.00;2.17;;;;;;;9.83;100.00;99411.38;4955308;29;20031;-72
2023/03/31 05:44:03;;;;;;;10.35;2.58;;;;;;;9.84;100.00;99417.59;4965009;28;20031;-73
2023/03/31 05:46:28;;;;;;;10.90;2.50;;;;;;;9.81;100.00;99407.28;4953805;28;20038;-72
2023/03/31 05:48:53;;;;;;;10.48;2.13;;;;;;;9.85;100.00;99409.22;4940809;28;20042;-69
2023/03/31 05:51:19;;;;;;;9.05;2.38;;;;;;;9.82;100.00;99403.53;4954201;28;20031;-73
2023/03/31 05:53:44;;;;;;;8.52;2.35;;;;;;;9.81;100.00;99396.47;4954859;29;20027;-71
2023/03/31 05:56:11;;;;;;;7.05;1.85;;;;;;;9.80;100.00;99397.53;4938412;29;20034;-70
2023/03/31 05:58:37;;;;;;;7.70;2.13;;;;;;;9.82;100.00;99396.22;4954929;29;20359;-72
2023/03/31 06:01:07;;;;;;;7.97;2.20;;;;;;;9.80;100.00;99400.25;4950721;28;20385;-73
2023/03/31 06:03:34;;;;;;;11.40;2.43;;;;;;;9.81;100.00;99391.06;4960106;28;20031;-71
2023/03/31 06:06:00;;;;;;;8.13;2.13;;;;;;;9.82;100.00;99390.00;4971767;28;20292;-71
2023/03/31 06:08:27;;;;;;;12.63;2.22;;;;;;;9.83;100.00;99378.13;4972755;28;20050;-73
2023/03/31 06:10:53;;;;;;;10.88;2.30;;;;;;;9.83;100.00;99370.00;4974142;28;20031;-73
2023/03/31 06:13:18;;;;;;;8.55;2.45;;;;;;;9.84;100.00;99368.94;4963259;28;20163;-71
2023/03/31 06:15:52;;;;;;;8.25;2.30;;;;;;;9.86;100.00;99350.63;4965137;28;20076;-72
2023/03/31 06:18:17;;;;;;;9.02;3.38;;;;;;;9.85;100.00;99362.47;4954611;28;20027;-72
2023/03/31 06:20:42;;;;;;;11.05;2.50;;;;;;;9.86;100.00;99347.91;4954543;28;20118;-72
2023/03/31 06:23:08;;;;;;;7.80;2.20;;;;;;;9.84;100.00;99344.63;4954127;28;20035;-70
2023/03/31 06:25:39;;;;;;;8.27;2.28;;;;;;;9.80;100.00;99335.41;4949193;29;20031;-72
2023/03/31 06:28:06;;;;;;;12.65;3.15;;;;;;;9.83;100.00;99332.19;4953509;28;20047;-72
2023/03/31 06:30:32;;;;;;;9.43;2.72;;;;;;;9.84;100.00;99333.81;4957814;28;20031;-75
2023/03/31 06:32:57;;;;;;;8.68;2.38;;;;;;;9.80;100.00;99357.03;4964846;28;20031;-72
2023/03/31 06:35:23;;;;;;;13.10;3.05;;;;;;;9.79;100.00;99369.72;4963284;28;20398;-71
2023/03/31 06:37:48;;;;;;;9.00;2.10;;;;;;;9.72;100.00;99361.84;4970744;28;20118;-74
2023/03/31 06:40:13;;;;;;;7.82;2.38;;;;;;;9.69;100.00;99334.50;4953608;28;20179;-73
2023/03/31 06:42:39;;;;;;;5.68;2.40;;;;;;;9.73;100.00;99335.63;4952140;28;20070;-73
2023/03/31 06:45:05;;;;;;;8.88;2.42;;;;;;;9.76;100.00;99341.31;4936748;28;20368;-69
2023/03/31 06:47:30;;;;;;;9.30;2.60;;;;;;;9.76;100.00;99352.13;4961342;28;20125;-68
2023/03/31 06:49:55;;;;;;;9.27;2.63;;;;;;;9.75;100.00;99352.38;4957821;28;20544;-71
2023/03/31 06:52:21;;;;;;;8.52;2.45;;;;;;;9.81;100.00;99345.94;4952316;28;20029;-72
2023/03/31 06:54:46;;;;;;;12.02;2.78;;;;;;;9.85;100.00;99336.28;4946855;28;20027;-71
2023/03/31 06:57:11;;;;;;;8.13;2.50;;;;;;;9.88;100.00;99329.53;4965564;28;20035;-73
2023/03/31 06:59:37;;;;;;;11.88;3.10;;;;;;;9.87;100.00;99336.00;4954015;28;20027;-72
2023/03/31 07:02:47;;;;;;;13.90;3.25;;;;;;;9.87;100.00;99319.81;4951658;29;20019;-78
2023/03/31 07:05:12;;;;;;;11.63;3.00;;;;;;;9.85;100.00;99346.28;4955985;28;20031;-73
2023/03/31 07:07:37;;;;;;;14.18;3.03;;;;;;;9.82;100.00;99336.78;4964781;28;20027;-72
2023/03/31 07:10:03;;;;;;;13.57;3.33;;;;;;;9.83;100.00;99353.81;4953479;28;20050;-75
2023/03/31 07:12:31;;;;;;;15.68;3.40;;;;;;;9.82;100.00;99330.56;4953346;28;20059;-72
2023/03/31 07:14:57;;;;;;;13.18;3.35;;;;;;;9.83;100.00;99313.28;4971718;28;20060;-73
2023/03/31 07:17:24;;;;;;;11.40;3.20;;;;;;;9.87;100.00;99320.63;4954109;28;20069;-74
2023/03/31 07:19:50;;;;;;;11.38;3.10;;;;;;;9.87;100.00;99311.69;4963291;28;20031;-72
2023/03/31 07:22:15;;;;;;;13.13;3.05;;;;;;;9.94;100.00;99315.00;4970649;28;20383;-71
2023/03/31 07:24:40;;;;;;;13.77;3.00;;;;;;;9.94;100.00;99307.69;4966644;28;20387;-73
2023/03/31 07:27:06;;;;;;;11.57;3.10;;;;;;;9.99;100.00;99311.53;4963261;28;20027;-68
2023/03/31 07:29:32;;;;;;;10.18;2.80;;;;;;;9.97;100.00;99300.16;4954240;28;20026;-72
2023/03/31 07:31:57;;;;;;;11.73;3.00;;;;;;;9.99;100.00;99306.91;4953999;28;20153;-72
2023/03/31 07:34:24;;;;;;;9.35;2.47;;;;;;;10.01;100.00;99302.09;4940806;28;20026;-70
2023/03/31 07:36:50;;;;;;;10.10;2.60;;;;;;;9.99;100.00;99304.22;4954718;28;20078;-72
2023/03/31 07:39:15;;;;;;;9.73;2.40;;;;;;;10.02;100.00;99301.00;4957279;28;20530;-70
2023/03/31 07:41:41;;;;;;;10.10;2.30;;;;;;;10.03;100.00;99299.13;4950755;28;20035;-72
2023/03/31 07:44:06;;;;;;;10.90;2.45;;;;;;;10.03;100.00;99291.81;4950104;28;20023;-72
2023/03/31 07:46:31;;;;;;;13.57;2.78;;;;;;;10.09;100.00;99295.38;4934051;28;20039;-74
2023/03/31 07:48:57;;;;;;;12.98;2.92;;;;;;;10.11;100.00;99299.47;4958486;28;20057;-72
2023/03/31 07:51:25;;;;;;;13.23;2.65;;;;;;;10.15;100.00;99291.63;4953943;28;20482;-70
2023/03/31 07:53:51;;;;;;;9.63;2.63;;;;;;;10.18;100.00;99288.41;4948820;28;20078;-69
2023/03/31 07:56:21;;;;;;;15.48;3.22;;;;;;;10.19;100.00;99292.75;4954681;28;20066;-70
2023/03/31 07:58:47;;;;;;;15.50;3.25;;;;;;;10.24;100.00;99286.56;4939536;29;20493;-74
2023/03/31 08:01:17;;;;;;;15.77;3.20;;;;;;;10.28;100.00;99284.94;4954722;29;20090;-77
2023/03/31 08:03:45;;;;;;;15.82;3.13;;;;;;;10.33;100.00;99276.91;4956949;28;20031;-70
2023/03/31 08:06:10;;;;;;;16.08;3.78;;;;;;;10.36;100.00;99276.38;4939271;29;20027;-75
2023/03/31 08:08:37;;;;;;;14.85;3.95;;;;;;;10.39;100.00;99277.75;4957250;28;20039;-75
2023/03/31 08:11:03;;;;;;;18.05;4.10;;;;;;;10.40;100.00;99272.09;4959658;28;20034;-74
2023/03/31 08:13:29;;;;;;;17.05;3.85;;;;;;;10.45;100.00;99268.59;4956787;29;20027;-73
2023/03/31 08:15:55;;;;;;;14.93;3.63;;;;;;;10.51;100.00;99270.25;4963931;28;20037;-72
2023/03/31 08:18:20;;;;;;;14.00;3.90;;;;;;;10.55;100.00;99267.81;4975791;28;20026;-75
2023/03/31 08:20:48;;;;;;;18.27;4.32;;;;;;;10.63;100.00;99270.03;4974932;28;20054;-76
2023/03/31 08:23:14;;;;;;;22.15;4.63;;;;;;;10.76;100.00;99257.91;4974857;28;20022;-72
2023/03/31 08:25:40;;;;;;;21.45;4.30;;;;;;;10.80;100.00;99262.50;4958766;28;20031;-75
2023/03/31 08:28:05;;;;;;;16.38;4.28;;;;;;;10.84;100.00;99259.28;4958421;28;20378;-75
2023/03/31 08:30:31;;;;;;;22.48;4.55;;;;;;;10.86;100.00;99257.13;4960410;28;20110;-74
2023/03/31 08:32:56;;;;;;;19.38;4.32;;;;;;;10.88;100.00;99257.66;4956044;29;20068;-76
2023/03/31 08:35:22;;;;;;;19.08;4.68;;;;;;;10.86;100.00;99263.34;4946749;28;20043;-73
2023/03/31 08:37:47;;;;;;;17.48;4.68;;;;;;;10.88;100.00;99261.19;4964755;28;20035;-76
2023/03/31 08:40:21;;;;;;;18.38;4.72;;;;;;;10.93;100.00;99260.38;4956555;28;20035;-74
2023/03/31 08:42:52;;;;;;;20.83;5.38;;;;;;;10.94;100.00;99272.84;4958446;28;20086;-76
2023/03/31 08:45:17;;;;;;;20.67;4.40;;;;;;;10.97;100.00;99267.69;4966551;28;20027;-73
2023/03/31 08:47:44;;;;;;;19.73;4.75;;;;;;;10.97;100.00;99264.97;4958097;28;20050;-75
2023/03/31 08:50:17;;;;;;;22.75;5.25;;;;;;;11.00;100.00;99266.34;4973252;28;20050;-72
2023/03/31 08:52:49;;;;;;;21.33;6.03;;;;;;;11.02;100.00;99258.81;4968018;28;20026;-75
2023/03/31 08:55:26;;;;;;;;;;;;;;;11.12;100.00;99256.09;4967056;28;20034;-74
2023/03/31 08:58:26;;;;;;;26.10;6.38;;;;;;;11.13;100.00;99251.50;4939565;29;19910;-76
2023/03/31 09:01:13;;;;;;;16.77;4.88;;;;;;;11.16;100.00;99251.78;4959762;28;20031;-76
2023/03/31 09:04:15;;;;;;;21.10;5.20;;;;;;;11.17;100.00;99261.53;4957886;28;20363;-74
2023/03/31 09:07:05;;;;;;;21.60;4.57;;;;;;;11.20;100.00;99251.25;4975224;28;20070;-76
2023/03/31 09:09:55;;;;;;;22.20;4.28;;;;;;;11.26;100.00;99251.00;4958091;28;20027;-76
2023/03/31 09:12:28;;;;;;;20.77;4.90;;;;;;;11.28;100.00;99248.03;4970655;28;20086;-72
2023/03/31 09:15:04;;;;;;;16.92;4.10;;;;;;;11.27;100.00;99240.97;4970218;28;20024;-75
2023/03/31 09:18:37;;;;;;;19.13;4.30;;;;;;;11.35;100.00;99248.53;4959218;28;20038;-74
2023/03/31 09:21:17;;;;;;;18.02;4.40;;;;;;;11.37;100.00;99246.41;4965528;28;20034;-73
2023/03/31 09:23:56;;;;;;;19.67;4.57;;;;;;;11.36;100.00;99244.75;4951385;29;20031;-73
2023/03/31 09:26:42;;;;;;;20.58;4.72;;;;;;;11.40;100.00;99245.84;4937874;29;20031;-76
2023/03/31 09:29:17;;;;;;;18.40;4.30;;;;;;;11.33;100.00;99229.84;4937917;29;20046;-73
2023/03/31 09:31:43;;;;;;;17.17;4.32;;;;;;;11.34;100.00;99233.41;4939824;29;20043;-72
2023/03/31 09:34:25;;;;;;;17.23;3.75;;;;;;;11.34;100.00;99230.69;4937845;29;20050;-74
2023/03/31 09:36:51;;;;;;;20.67;4.35;;;;;;;11.35;100.00;99232.28;4937471;29;20475;-72
2023/03/31 09:39:16;;;;;;;16.20;4.07;;;;;;;11.36;100.00;99233.94;4946971;28;20041;-78
2023/03/31 09:41:55;;;;;;;18.52;4.70;;;;;;;11.39;100.00;99217.13;4955274;29;20360;-73
2023/03/31 09:44:20;;;;;;;15.57;4.07;;;;;;;11.44;100.00;99219.03;4955627;29;20102;-75
2023/03/31 09:46:59;;;;;;;16.30;3.70;;;;;;;11.49;100.00;99211.72;4955335;28;20106;-81
2023/03/31 09:49:27;;;;;;;17.40;3.67;;;;;;;11.53;100.00;99212.00;4937306;29;20496;-75
2023/03/31 09:52:16;;;;;;;16.48;3.65;;;;;;;11.62;100.00;99218.47;4954930;29;20031;-71
2023/03/31 09:54:52;;;;;;;17.30;4.00;;;;;;;11.68;100.00;99212.00;4955328;28;20362;-77
2023/03/31 09:57:29;;;;;;;13.32;3.80;;;;;;;11.68;100.00;99208.47;4955416;29;20027;-75
2023/03/31 10:00:13;;;;;;;15.23;3.58;;;;;;;11.74;100.00;99204.66;4954807;29;20044;-73
2023/03/31 10:02:44;;;;;;;14.90;3.60;;;;;;;11.74;100.00;99204.66;4934965;29;20467;-75
2023/03/31 10:05:28;;;;;;;14.38;3.50;;;;;;;11.81;100.00;99210.63;4962942;28;20026;-73
2023/03/31 10:08:18;;;;;;;15.45;3.15;;;;;;;11.84;100.00;99207.34;4974052;28;20077;-75
2023/03/31 10:11:05;;;;;;;16.63;3.83;;;;;;;11.88;100.00;99203.03;4937431;29;20034;-73
2023/03/31 10:13:51;;;;;;;14.48;3.20;;;;;;;11.89;100.00;99203.81;4937499;29;20386;-72
2023/03/31 10:16:43;;;;;;;12.68;3.70;;;;;;;11.86;100.00;99204.38;4937857;29;20094;-73
2023/03/31 10:19:24;;;;;;;12.15;3.40;;;;;;;11.90;100.00;99208.16;4968701;28;20034;-73
2023/03/31 10:21:55;;;;;;;16.00;4.38;;;;;;;11.86;100.00;99202.47;4957150;28;20038;-72
2023/03/31 10:24:21;;;;;;;14.10;3.20;;;;;;;11.88;100.00;99192.19;4952590;28;20421;-73
2023/03/31 10:26:49;;;;;;;12.32;3.33;;;;;;;11.88;100.00;99191.34;4961029;28;20026;-72
2023/03/31 10:29:30;;;;;;;11.25;3.22;;;;;;;11.87;100.00;99178.91;4957501;28;20036;-74
2023/03/31 10:32:02;;;;;;;13.68;3.17;;;;;;;11.82;100.00;99190.56;4956730;28;20027;-72
2023/03/31 10:34:28;;;;;;;13.60;3.42;;;;;;;11.79;100.00;99188.41;4940294;29;20443;-74
2023/03/31 10:36:55;;;;;;;12.27;3.28;;;;;;;11.73;100.00;99183.25;4954295;29;20031;-72
2023/03/31 10:39:31;;;;;;;14.85;3.35;;;;;;;11.76;100.00;99183.53;4954474;29;20059;-71
2023/03/31 10:41:57;;;;;;;14.18;3.60;;;;;;;11.74;100.00;99182.19;4953897;28;20051;-74
2023/03/31 10:44:43;;;;;;;17.77;4.22;;;;;;;11.72;100.00;99193.28;4937311;29;20034;-72
2023/03/31 10:47:14;;;;;;;13.88;3.50;;;;;;;11.76;100.00;99182.69;4953726;29;20047;-74
2023/03/31 10:49:42;;;;;;;14.73;3.83;;;;;;;11.78;100.00;99175.94;4936932;28;20110;-74
2023/03/31 10:52:26;;;;;;;16.02;3.85;;;;;;;11.83;100.00;99173.19;4954088;29;20038;-72
2023/03/31 10:54:59;;;;;;;11.63;4.03;;;;;;;11.87;100.00;99168.06;4953585;29;20403;-70
2023/03/31 10:57:46;;;;;;;14.50;3.60;;;;;;;12.00;100.00;99172.09;4953745;28;20027;-73
2023/03/31 11:00:24;;;;;;;14.18;3.83;;;;;;;12.01;100.00;99162.91;4937045;29;20102;-74
2023/03/31 11:03:01;;;;;;;13.80;3.45;;;;;;;11.96;100.00;99174.56;4952280;28;20023;-75
2023/03/31 11:05:35;;;;;;;16.10;3.63;;;;;;;11.89;100.00;99163.97;4970375;28;20467;-77
2023/03/31 11:08:27;;;;;;;18.60;4.38;;;;;;;11.87;100.00;99177.00;4956359;28;20561;-79
2023/03/31 11:11:10;;;;;;;14.23;4.00;;;;;;;11.77;100.00;99162.66;4973319;28;20451;-74
2023/03/31 11:13:56;;;;;;;20.27;4.72;;;;;;;11.73;100.00;99167.81;4954611;29;20019;-75
2023/03/31 11:16:33;;;;;;;21.23;4.85;;;;;;;11.72;100.00;99165.38;4969041;28;20027;-73
2023/03/31 11:19:44;;;;;;;15.07;3.55;;;;;;;11.79;100.00;99158.59;4957552;28;20081;-77
2023/03/31 11:22:47;;;;;;;17.67;4.57;;;;;;;11.86;100.00;99152.88;4963026;28;20125;-77
2023/03/31 11:25:30;;;;;;;18.23;3.70;;;;;;;11.93;100.00;99147.22;4970651;28;20533;-72
2023/03/31 11:28:14;;;;;;;14.95;4.28;;;;;;;11.96;100.00;99143.94;4940375;28;20383;-71
2023/03/31 11:30:56;;;;;;;16.30;3.83;;;;;;;12.03;100.00;99149.88;4972521;28;20034;-73
2023/03/31 11:33:44;;;;;;;18.55;4.43;;;;;;;12.11;100.00;99134.94;4959946;28;20128;-70
2023/03/31 11:36:31;;;;;;;17.38;4.72;;;;;;;12.16;100.00;99127.59;4971498;28;20054;-73
2023/03/31 11:39:30;;;;;;;13.23;3.92;;;;;;;12.15;100.00;99126.00;4956538;29;20035;-73
2023/03/31 11:42:14;;;;;;;21.23;4.63;;;;;;;12.16;100.00;99116.75;4959978;28;20023;-73